Algernon, Nebraska
Current Conditions -  °F | °C
As of 3:53 PM on Sunday 25 Jan 2015 (Local Time) from KBBW Reporting Station
Clear Clear  
Wind Chill: 39°   Ceiling: Unl
Heat Index: 45°   Visibility: 10mi
Dew Point: 29°   Wind: 12mph
Humidity: 53%   Direction: 330°NNW
Pressure: 30.06"   Gusts: NA
Location:  41.1632°N, 99.3112°W
Report Text: KBBW 252153Z AUTO 33010KT 10SM CLR 07/M02 A3006 RMK AO2 SLP189 T00721017
Loading
Personal Weather Stations






























Interactive Weather Map New forecast layout! Learn more

10-Day Weather Forecast

Advertisements
Track Severe Weather on mobile